sensor_id;sensor_type;location;lat;lon;timestamp;P1;durP1;ratioP1;P2;durP2;ratioP2
71116;SDS011;58775;46.992;9.518;2023-05-16T06:30:01;7.60;;;4.53;;
71116;SDS011;58775;46.992;9.518;2023-05-16T07:46:52;2.75;;;1.15;;
71116;SDS011;58775;46.992;9.518;2023-05-16T07:55:47;2.50;;;1.00;;
71116;SDS011;58775;46.992;9.518;2023-05-16T09:05:39;5.75;;;2.53;;
71116;SDS011;58775;46.992;9.518;2023-05-16T09:07:54;5.50;;;2.43;;
71116;SDS011;58775;46.992;9.518;2023-05-16T09:10:12;4.45;;;2.17;;
71116;SDS011;58775;46.992;9.518;2023-05-16T09:19:21;4.50;;;1.85;;
71116;SDS011;58775;46.992;9.518;2023-05-16T09:25:09;5.32;;;2.20;;
71116;SDS011;58775;46.992;9.518;2023-05-16T16:40:35;5.63;;;2.50;;
71116;SDS011;58775;46.992;9.518;2023-05-16T16:42:41;5.72;;;2.65;;
71116;SDS011;58775;46.992;9.518;2023-05-16T16:44:46;5.45;;;2.53;;
71116;SDS011;58775;46.992;9.518;2023-05-16T16:46:49;6.05;;;2.85;;
71116;SDS011;58775;46.992;9.518;2023-05-16T16:48:56;5.45;;;2.63;;
71116;SDS011;58775;46.992;9.518;2023-05-16T16:51:10;6.25;;;3.20;;
71116;SDS011;58775;46.992;9.518;2023-05-16T16:57:08;10.45;;;7.00;;
71116;SDS011;58775;46.992;9.518;2023-05-16T17:00:03;4.60;;;2.20;;
71116;SDS011;58775;46.992;9.518;2023-05-16T17:03:22;7.80;;;3.50;;
71116;SDS011;58775;46.992;9.518;2023-05-16T17:05:27;7.05;;;3.45;;
71116;SDS011;58775;46.992;9.518;2023-05-16T17:07:34;6.38;;;2.80;;
71116;SDS011;58775;46.992;9.518;2023-05-16T17:09:41;6.35;;;3.22;;
71116;SDS011;58775;46.992;9.518;2023-05-16T17:11:45;5.32;;;1.88;;
71116;SDS011;58775;46.992;9.518;2023-05-16T17:13:54;5.38;;;2.17;;
71116;SDS011;58775;46.992;9.518;2023-05-16T17:16:01;5.05;;;2.00;;
71116;SDS011;58775;46.992;9.518;2023-05-16T17:18:23;6.53;;;2.70;;
71116;SDS011;58775;46.992;9.518;2023-05-16T17:21:36;3.80;;;1.48;;
71116;SDS011;58775;46.992;9.518;2023-05-16T17:23:42;3.40;;;1.30;;
71116;SDS011;58775;46.992;9.518;2023-05-16T17:25:47;3.92;;;1.50;;
71116;SDS011;58775;46.992;9.518;2023-05-16T17:27:54;4.00;;;1.60;;
71116;SDS011;58775;46.992;9.518;2023-05-16T17:29:59;4.53;;;1.92;;
71116;SDS011;58775;46.992;9.518;2023-05-16T17:32:06;5.05;;;2.25;;
71116;SDS011;58775;46.992;9.518;2023-05-16T17:34:11;5.15;;;2.15;;
71116;SDS011;58775;46.992;9.518;2023-05-16T17:36:16;4.72;;;1.80;;
71116;SDS011;58775;46.992;9.518;2023-05-16T17:38:22;6.15;;;1.70;;
71116;SDS011;58775;46.992;9.518;2023-05-16T17:40:30;3.83;;;1.70;;
71116;SDS011;58775;46.992;9.518;2023-05-16T17:42:52;3.58;;;1.30;;
71116;SDS011;58775;46.992;9.518;2023-05-16T17:51:51;4.15;;;1.48;;
71116;SDS011;58775;46.992;9.518;2023-05-16T17:54:46;3.38;;;1.33;;
71116;SDS011;58775;46.992;9.518;2023-05-16T17:56:51;5.72;;;1.77;;
71116;SDS011;58775;46.992;9.518;2023-05-16T17:58:56;4.00;;;1.38;;
71116;SDS011;58775;46.992;9.518;2023-05-16T18:01:00;3.45;;;1.20;;
71116;SDS011;58775;46.992;9.518;2023-05-16T18:04:33;3.25;;;1.10;;
71116;SDS011;58775;46.992;9.518;2023-05-16T18:15:12;7.70;;;3.58;;
71116;SDS011;58775;46.992;9.518;2023-05-16T18:17:26;7.68;;;4.03;;
71116;SDS011;58775;46.992;9.518;2023-05-16T18:19:35;8.65;;;3.35;;
71116;SDS011;58775;46.992;9.518;2023-05-16T18:21:41;6.30;;;3.25;;
71116;SDS011;58775;46.992;9.518;2023-05-16T18:23:48;6.55;;;3.10;;
71116;SDS011;58775;46.992;9.518;2023-05-16T18:26:00;4.53;;;2.20;;
71116;SDS011;58775;46.992;9.518;2023-05-16T18:37:35;4.88;;;2.15;;
71116;SDS011;58775;46.992;9.518;2023-05-16T18:40:03;4.20;;;1.60;;
71116;SDS011;58775;46.992;9.518;2023-05-16T18:42:46;5.05;;;1.92;;
71116;SDS011;58775;46.992;9.518;2023-05-16T18:49:09;5.97;;;2.35;;
71116;SDS011;58775;46.992;9.518;2023-05-16T18:51:46;6.30;;;2.42;;
71116;SDS011;58775;46.992;9.518;2023-05-16T19:07:02;4.13;;;1.50;;
71116;SDS011;58775;46.992;9.518;2023-05-16T19:09:13;4.63;;;1.30;;
71116;SDS011;58775;46.992;9.518;2023-05-16T19:11:19;3.17;;;1.00;;
71116;SDS011;58775;46.992;9.518;2023-05-16T19:13:24;2.53;;;0.77;;
71116;SDS011;58775;46.992;9.518;2023-05-16T19:15:30;2.08;;;0.70;;
71116;SDS011;58775;46.992;9.518;2023-05-16T19:17:38;2.20;;;0.80;;
71116;SDS011;58775;46.992;9.518;2023-05-16T19:19:42;2.83;;;1.00;;
71116;SDS011;58775;46.992;9.518;2023-05-16T19:21:47;3.85;;;1.10;;
71116;SDS011;58775;46.992;9.518;2023-05-16T19:23:56;3.92;;;1.20;;
71116;SDS011;58775;46.992;9.518;2023-05-16T19:26:01;4.25;;;1.20;;
71116;SDS011;58775;46.992;9.518;2023-05-16T19:28:08;3.90;;;1.40;;
71116;SDS011;58775;46.992;9.518;2023-05-16T19:30:16;3.67;;;1.35;;
71116;SDS011;58775;46.992;9.518;2023-05-16T19:32:21;7.25;;;1.27;;
71116;SDS011;58775;46.992;9.518;2023-05-16T19:34:28;4.18;;;1.60;;
71116;SDS011;58775;46.992;9.518;2023-05-16T19:36:36;3.80;;;1.20;;
71116;SDS011;58775;46.992;9.518;2023-05-16T19:38:40;4.15;;;1.40;;
71116;SDS011;58775;46.992;9.518;2023-05-16T19:40:45;2.95;;;1.00;;
71116;SDS011;58775;46.992;9.518;2023-05-16T19:42:51;3.78;;;1.30;;
71116;SDS011;58775;46.992;9.518;2023-05-16T19:44:54;3.25;;;1.00;;
71116;SDS011;58775;46.992;9.518;2023-05-16T19:47:19;4.18;;;1.40;;
71116;SDS011;58775;46.992;9.518;2023-05-16T19:49:40;5.30;;;2.25;;
71116;SDS011;58775;46.992;9.518;2023-05-16T19:51:45;7.00;;;2.50;;
71116;SDS011;58775;46.992;9.518;2023-05-16T19:53:49;5.78;;;2.42;;
71116;SDS011;58775;46.992;9.518;2023-05-16T19:56:15;7.53;;;2.83;;
71116;SDS011;58775;46.992;9.518;2023-05-16T19:58:23;6.32;;;2.85;;
71116;SDS011;58775;46.992;9.518;2023-05-16T20:00:32;6.75;;;2.60;;
71116;SDS011;58775;46.992;9.518;2023-05-16T20:02:39;5.97;;;2.55;;
71116;SDS011;58775;46.992;9.518;2023-05-16T20:04:43;7.05;;;3.13;;
71116;SDS011;58775;46.992;9.518;2023-05-16T20:06:49;7.47;;;2.78;;
71116;SDS011;58775;46.992;9.518;2023-05-16T20:08:54;7.00;;;2.90;;
71116;SDS011;58775;46.992;9.518;2023-05-16T20:10:58;7.55;;;2.75;;
71116;SDS011;58775;46.992;9.518;2023-05-16T20:13:01;6.15;;;2.80;;
71116;SDS011;58775;46.992;9.518;2023-05-16T20:15:05;6.28;;;2.80;;
71116;SDS011;58775;46.992;9.518;2023-05-16T20:17:11;5.78;;;2.30;;
71116;SDS011;58775;46.992;9.518;2023-05-16T20:19:14;5.00;;;1.98;;
71116;SDS011;58775;46.992;9.518;2023-05-16T20:21:19;5.93;;;2.22;;
71116;SDS011;58775;46.992;9.518;2023-05-16T20:23:23;4.95;;;2.00;;
71116;SDS011;58775;46.992;9.518;2023-05-16T20:25:26;4.78;;;2.00;;
71116;SDS011;58775;46.992;9.518;2023-05-16T20:27:32;4.18;;;1.63;;
71116;SDS011;58775;46.992;9.518;2023-05-16T20:29:36;4.15;;;1.40;;
71116;SDS011;58775;46.992;9.518;2023-05-16T20:31:39;5.45;;;1.77;;
71116;SDS011;58775;46.992;9.518;2023-05-16T20:33:44;4.00;;;1.58;;
71116;SDS011;58775;46.992;9.518;2023-05-16T20:35:48;4.05;;;1.58;;
71116;SDS011;58775;46.992;9.518;2023-05-16T20:37:51;3.83;;;1.40;;
71116;SDS011;58775;46.992;9.518;2023-05-16T20:39:55;3.88;;;1.40;;
71116;SDS011;58775;46.992;9.518;2023-05-16T20:41:58;3.17;;;1.10;;
71116;SDS011;58775;46.992;9.518;2023-05-16T20:44:02;4.20;;;1.45;;
71116;SDS011;58775;46.992;9.518;2023-05-16T20:46:06;3.70;;;1.20;;
71116;SDS011;58775;46.992;9.518;2023-05-16T20:48:09;3.97;;;1.25;;
71116;SDS011;58775;46.992;9.518;2023-05-16T20:50:14;3.33;;;1.23;;
71116;SDS011;58775;46.992;9.518;2023-05-16T20:52:17;3.80;;;1.35;;
71116;SDS011;58775;46.992;9.518;2023-05-16T20:54:22;4.60;;;1.35;;
71116;SDS011;58775;46.992;9.518;2023-05-16T20:56:25;4.45;;;1.20;;
71116;SDS011;58775;46.992;9.518;2023-05-16T20:58:29;3.30;;;0.93;;
71116;SDS011;58775;46.992;9.518;2023-05-16T21:00:32;3.55;;;1.35;;
71116;SDS011;58775;46.992;9.518;2023-05-16T21:02:49;4.28;;;1.50;;
71116;SDS011;58775;46.992;9.518;2023-05-16T21:04:53;5.25;;;1.45;;
71116;SDS011;58775;46.992;9.518;2023-05-16T21:06:56;4.93;;;1.77;;
71116;SDS011;58775;46.992;9.518;2023-05-16T21:08:59;6.07;;;1.85;;
71116;SDS011;58775;46.992;9.518;2023-05-16T21:11:03;5.32;;;2.10;;
71116;SDS011;58775;46.992;9.518;2023-05-16T21:13:06;4.75;;;1.67;;
71116;SDS011;58775;46.992;9.518;2023-05-16T21:15:24;4.82;;;1.65;;
71116;SDS011;58775;46.992;9.518;2023-05-16T21:17:29;4.40;;;1.50;;
71116;SDS011;58775;46.992;9.518;2023-05-16T21:19:32;4.13;;;1.42;;
71116;SDS011;58775;46.992;9.518;2023-05-16T21:21:35;3.03;;;1.20;;
71116;SDS011;58775;46.992;9.518;2023-05-16T21:23:39;6.18;;;1.70;;
71116;SDS011;58775;46.992;9.518;2023-05-16T21:25:42;3.22;;;1.30;;
71116;SDS011;58775;46.992;9.518;2023-05-16T21:27:45;3.90;;;1.50;;
71116;SDS011;58775;46.992;9.518;2023-05-16T21:29:50;3.45;;;1.20;;
71116;SDS011;58775;46.992;9.518;2023-05-16T21:31:53;5.68;;;2.05;;
71116;SDS011;58775;46.992;9.518;2023-05-16T21:33:57;5.65;;;2.10;;
71116;SDS011;58775;46.992;9.518;2023-05-16T21:36:00;3.88;;;1.35;;
71116;SDS011;58775;46.992;9.518;2023-05-16T21:38:06;5.47;;;1.60;;
71116;SDS011;58775;46.992;9.518;2023-05-16T21:40:09;4.93;;;1.85;;
71116;SDS011;58775;46.992;9.518;2023-05-16T21:42:19;4.43;;;1.80;;
71116;SDS011;58775;46.992;9.518;2023-05-16T21:44:22;3.97;;;1.38;;
71116;SDS011;58775;46.992;9.518;2023-05-16T21:46:26;3.47;;;1.30;;
71116;SDS011;58775;46.992;9.518;2023-05-16T21:48:30;4.95;;;1.45;;
71116;SDS011;58775;46.992;9.518;2023-05-16T21:50:33;3.85;;;1.30;;
71116;SDS011;58775;46.992;9.518;2023-05-16T21:52:36;4.40;;;1.48;;
71116;SDS011;58775;46.992;9.518;2023-05-16T21:54:40;2.67;;;1.02;;
71116;SDS011;58775;46.992;9.518;2023-05-16T21:56:43;4.90;;;1.48;;
71116;SDS011;58775;46.992;9.518;2023-05-16T21:58:46;3.67;;;2.20;;
71116;SDS011;58775;46.992;9.518;2023-05-16T22:00:49;2.42;;;0.93;;
71116;SDS011;58775;46.992;9.518;2023-05-16T22:02:52;4.93;;;1.70;;
71116;SDS011;58775;46.992;9.518;2023-05-16T22:04:57;5.63;;;1.52;;
71116;SDS011;58775;46.992;9.518;2023-05-16T22:07:02;4.45;;;1.55;;
71116;SDS011;58775;46.992;9.518;2023-05-16T22:09:06;6.35;;;1.40;;
71116;SDS011;58775;46.992;9.518;2023-05-16T22:11:09;2.13;;;0.70;;
71116;SDS011;58775;46.992;9.518;2023-05-16T22:13:12;1.30;;;0.50;;
71116;SDS011;58775;46.992;9.518;2023-05-16T22:15:16;2.85;;;0.90;;
71116;SDS011;58775;46.992;9.518;2023-05-16T22:17:21;1.77;;;0.63;;
71116;SDS011;58775;46.992;9.518;2023-05-16T22:19:25;2.08;;;0.80;;
71116;SDS011;58775;46.992;9.518;2023-05-16T22:21:30;3.35;;;1.17;;
71116;SDS011;58775;46.992;9.518;2023-05-16T22:23:34;3.95;;;0.95;;
71116;SDS011;58775;46.992;9.518;2023-05-16T22:25:38;2.85;;;0.70;;
71116;SDS011;58775;46.992;9.518;2023-05-16T22:27:43;3.80;;;0.80;;
71116;SDS011;58775;46.992;9.518;2023-05-16T22:29:47;3.45;;;1.00;;
71116;SDS011;58775;46.992;9.518;2023-05-16T22:31:50;5.05;;;1.10;;
71116;SDS011;58775;46.992;9.518;2023-05-16T22:33:53;4.13;;;1.48;;
71116;SDS011;58775;46.992;9.518;2023-05-16T22:35:56;4.72;;;1.45;;
71116;SDS011;58775;46.992;9.518;2023-05-16T22:38:00;3.72;;;1.33;;
71116;SDS011;58775;46.992;9.518;2023-05-16T22:40:04;5.43;;;1.45;;
71116;SDS011;58775;46.992;9.518;2023-05-16T22:42:09;4.28;;;1.33;;
71116;SDS011;58775;46.992;9.518;2023-05-16T22:44:11;5.85;;;1.70;;
71116;SDS011;58775;46.992;9.518;2023-05-16T22:46:15;5.95;;;1.40;;
71116;SDS011;58775;46.992;9.518;2023-05-16T22:48:17;4.90;;;1.60;;
71116;SDS011;58775;46.992;9.518;2023-05-16T22:50:21;3.15;;;1.40;;
71116;SDS011;58775;46.992;9.518;2023-05-16T22:52:24;3.17;;;1.13;;
71116;SDS011;58775;46.992;9.518;2023-05-16T22:54:28;3.55;;;0.90;;
71116;SDS011;58775;46.992;9.518;2023-05-16T22:56:31;2.92;;;1.13;;
71116;SDS011;58775;46.992;9.518;2023-05-16T22:58:34;2.60;;;0.80;;
71116;SDS011;58775;46.992;9.518;2023-05-16T23:00:37;2.88;;;0.95;;
71116;SDS011;58775;46.992;9.518;2023-05-16T23:05:42;3.40;;;0.98;;
71116;SDS011;58775;46.992;9.518;2023-05-16T23:07:45;3.42;;;1.00;;
71116;SDS011;58775;46.992;9.518;2023-05-16T23:09:48;4.30;;;1.15;;
71116;SDS011;58775;46.992;9.518;2023-05-16T23:11:51;3.85;;;1.10;;
71116;SDS011;58775;46.992;9.518;2023-05-16T23:13:56;3.67;;;0.90;;
71116;SDS011;58775;46.992;9.518;2023-05-16T23:15:58;1.92;;;0.70;;
71116;SDS011;58775;46.992;9.518;2023-05-16T23:18:03;1.83;;;0.50;;
71116;SDS011;58775;46.992;9.518;2023-05-16T23:20:06;2.42;;;0.60;;
71116;SDS011;58775;46.992;9.518;2023-05-16T23:22:09;3.08;;;0.73;;
71116;SDS011;58775;46.992;9.518;2023-05-16T23:24:28;3.78;;;0.90;;
71116;SDS011;58775;46.992;9.518;2023-05-16T23:26:31;1.73;;;0.63;;
71116;SDS011;58775;46.992;9.518;2023-05-16T23:28:34;2.50;;;0.80;;
71116;SDS011;58775;46.992;9.518;2023-05-16T23:30:37;3.03;;;0.93;;
71116;SDS011;58775;46.992;9.518;2023-05-16T23:32:41;2.83;;;0.88;;
71116;SDS011;58775;46.992;9.518;2023-05-16T23:34:44;2.78;;;0.60;;
71116;SDS011;58775;46.992;9.518;2023-05-16T23:36:48;1.75;;;0.80;;
71116;SDS011;58775;46.992;9.518;2023-05-16T23:38:51;2.03;;;0.70;;
71116;SDS011;58775;46.992;9.518;2023-05-16T23:40:55;2.40;;;0.80;;
71116;SDS011;58775;46.992;9.518;2023-05-16T23:42:58;1.92;;;0.60;;
71116;SDS011;58775;46.992;9.518;2023-05-16T23:45:02;1.75;;;0.50;;
71116;SDS011;58775;46.992;9.518;2023-05-16T23:47:07;1.88;;;0.60;;
71116;SDS011;58775;46.992;9.518;2023-05-16T23:49:09;1.63;;;0.57;;
71116;SDS011;58775;46.992;9.518;2023-05-16T23:51:14;1.27;;;0.40;;
71116;SDS011;58775;46.992;9.518;2023-05-16T23:53:18;2.08;;;0.57;;
71116;SDS011;58775;46.992;9.518;2023-05-16T23:55:21;1.60;;;0.68;;
71116;SDS011;58775;46.992;9.518;2023-05-16T23:57:25;1.80;;;0.50;;
71116;SDS011;58775;46.992;9.518;2023-05-16T23:59:28;1.48;;;0.40;;
